sensor_id;sensor_type;location;lat;lon;timestamp;P1;durP1;ratioP1;P2;durP2;ratioP2
13461;SDS011;6803;45.264;5.468;2023-04-24T00:02:27;3.30;;;1.83;;
13461;SDS011;6803;45.264;5.468;2023-04-24T00:04:58;3.20;;;1.60;;
13461;SDS011;6803;45.264;5.468;2023-04-24T00:07:31;4.63;;;1.60;;
13461;SDS011;6803;45.264;5.468;2023-04-24T00:10:02;3.12;;;1.65;;
13461;SDS011;6803;45.264;5.468;2023-04-24T00:12:34;5.20;;;1.87;;
13461;SDS011;6803;45.264;5.468;2023-04-24T00:15:07;1.57;;;1.47;;
13461;SDS011;6803;45.264;5.468;2023-04-24T00:17:40;4.07;;;1.60;;
13461;SDS011;6803;45.264;5.468;2023-04-24T00:20:11;1.60;;;1.07;;
13461;SDS011;6803;45.264;5.468;2023-04-24T00:22:42;3.10;;;1.13;;
13461;SDS011;6803;45.264;5.468;2023-04-24T00:25:14;2.00;;;1.33;;
13461;SDS011;6803;45.264;5.468;2023-04-24T00:27:44;3.20;;;2.60;;
13461;SDS011;6803;45.264;5.468;2023-04-24T00:30:15;2.27;;;1.20;;
13461;SDS011;6803;45.264;5.468;2023-04-24T00:32:47;4.10;;;1.67;;
13461;SDS011;6803;45.264;5.468;2023-04-24T00:35:18;2.10;;;1.37;;
13461;SDS011;6803;45.264;5.468;2023-04-24T00:37:49;1.87;;;1.50;;
13461;SDS011;6803;45.264;5.468;2023-04-24T00:40:20;1.83;;;1.20;;
13461;SDS011;6803;45.264;5.468;2023-04-24T00:42:50;1.33;;;1.23;;
13461;SDS011;6803;45.264;5.468;2023-04-24T00:45:29;1.57;;;1.47;;
13461;SDS011;6803;45.264;5.468;2023-04-24T00:48:00;2.73;;;1.33;;
13461;SDS011;6803;45.264;5.468;2023-04-24T00:50:31;4.30;;;1.57;;
13461;SDS011;6803;45.264;5.468;2023-04-24T00:53:02;9.70;;;2.17;;
13461;SDS011;6803;45.264;5.468;2023-04-24T00:55:33;4.33;;;1.67;;
13461;SDS011;6803;45.264;5.468;2023-04-24T00:58:05;5.70;;;1.53;;
13461;SDS011;6803;45.264;5.468;2023-04-24T01:00:36;6.37;;;1.90;;
13461;SDS011;6803;45.264;5.468;2023-04-24T01:03:07;3.50;;;1.73;;
13461;SDS011;6803;45.264;5.468;2023-04-24T01:05:42;3.63;;;1.70;;
13461;SDS011;6803;45.264;5.468;2023-04-24T01:08:13;4.87;;;1.73;;
13461;SDS011;6803;45.264;5.468;2023-04-24T01:10:44;2.17;;;1.97;;
13461;SDS011;6803;45.264;5.468;2023-04-24T01:13:16;2.20;;;1.90;;
13461;SDS011;6803;45.264;5.468;2023-04-24T01:15:47;3.57;;;2.60;;
13461;SDS011;6803;45.264;5.468;2023-04-24T01:18:19;4.20;;;1.90;;
13461;SDS011;6803;45.264;5.468;2023-04-24T01:20:49;3.83;;;1.83;;
13461;SDS011;6803;45.264;5.468;2023-04-24T01:23:22;5.90;;;1.90;;
13461;SDS011;6803;45.264;5.468;2023-04-24T01:25:53;3.87;;;3.07;;
13461;SDS011;6803;45.264;5.468;2023-04-24T01:28:24;2.07;;;1.70;;
13461;SDS011;6803;45.264;5.468;2023-04-24T01:30:56;3.17;;;2.20;;
13461;SDS011;6803;45.264;5.468;2023-04-24T01:33:28;4.10;;;2.07;;
13461;SDS011;6803;45.264;5.468;2023-04-24T01:35:59;3.03;;;2.03;;
13461;SDS011;6803;45.264;5.468;2023-04-24T01:38:30;3.73;;;1.83;;
13461;SDS011;6803;45.264;5.468;2023-04-24T01:41:01;6.00;;;2.50;;
13461;SDS011;6803;45.264;5.468;2023-04-24T01:43:32;3.37;;;1.83;;
13461;SDS011;6803;45.264;5.468;2023-04-24T01:46:04;2.70;;;1.73;;
13461;SDS011;6803;45.264;5.468;2023-04-24T01:48:35;4.28;;;2.12;;
13461;SDS011;6803;45.264;5.468;2023-04-24T01:51:07;3.83;;;2.10;;
13461;SDS011;6803;45.264;5.468;2023-04-24T01:53:37;2.80;;;1.97;;
13461;SDS011;6803;45.264;5.468;2023-04-24T01:56:08;2.67;;;1.60;;
13461;SDS011;6803;45.264;5.468;2023-04-24T01:58:40;5.33;;;2.20;;
13461;SDS011;6803;45.264;5.468;2023-04-24T02:01:15;3.30;;;1.87;;
13461;SDS011;6803;45.264;5.468;2023-04-24T02:03:48;3.97;;;1.90;;
13461;SDS011;6803;45.264;5.468;2023-04-24T02:06:19;2.83;;;1.97;;
13461;SDS011;6803;45.264;5.468;2023-04-24T02:08:51;3.40;;;2.17;;
13461;SDS011;6803;45.264;5.468;2023-04-24T02:11:22;4.20;;;2.10;;
13461;SDS011;6803;45.264;5.468;2023-04-24T02:13:53;3.67;;;1.60;;
13461;SDS011;6803;45.264;5.468;2023-04-24T02:16:23;4.43;;;1.70;;
13461;SDS011;6803;45.264;5.468;2023-04-24T02:18:55;4.33;;;2.00;;
13461;SDS011;6803;45.264;5.468;2023-04-24T02:21:26;2.13;;;1.70;;
13461;SDS011;6803;45.264;5.468;2023-04-24T02:23:56;3.07;;;1.30;;
13461;SDS011;6803;45.264;5.468;2023-04-24T02:26:27;1.70;;;1.50;;
13461;SDS011;6803;45.264;5.468;2023-04-24T02:28:59;2.60;;;1.40;;
13461;SDS011;6803;45.264;5.468;2023-04-24T02:31:31;1.90;;;1.37;;
13461;SDS011;6803;45.264;5.468;2023-04-24T02:34:02;2.00;;;1.53;;
13461;SDS011;6803;45.264;5.468;2023-04-24T02:36:33;5.63;;;1.70;;
13461;SDS011;6803;45.264;5.468;2023-04-24T02:39:04;6.43;;;1.77;;
13461;SDS011;6803;45.264;5.468;2023-04-24T02:41:35;4.17;;;1.60;;
13461;SDS011;6803;45.264;5.468;2023-04-24T02:44:06;5.10;;;2.83;;
13461;SDS011;6803;45.264;5.468;2023-04-24T02:46:37;3.73;;;1.80;;
13461;SDS011;6803;45.264;5.468;2023-04-24T02:49:09;4.93;;;1.30;;
13461;SDS011;6803;45.264;5.468;2023-04-24T02:51:40;1.80;;;1.60;;
13461;SDS011;6803;45.264;5.468;2023-04-24T02:54:11;5.03;;;1.73;;
13461;SDS011;6803;45.264;5.468;2023-04-24T02:56:41;3.73;;;1.40;;
13461;SDS011;6803;45.264;5.468;2023-04-24T02:59:12;3.13;;;1.73;;
13461;SDS011;6803;45.264;5.468;2023-04-24T03:01:43;1.73;;;1.50;;
13461;SDS011;6803;45.264;5.468;2023-04-24T03:04:14;5.80;;;1.73;;
13461;SDS011;6803;45.264;5.468;2023-04-24T03:06:47;2.90;;;1.80;;
13461;SDS011;6803;45.264;5.468;2023-04-24T03:09:19;2.77;;;1.60;;
13461;SDS011;6803;45.264;5.468;2023-04-24T03:11:50;3.83;;;1.57;;
13461;SDS011;6803;45.264;5.468;2023-04-24T03:14:21;6.67;;;1.67;;
13461;SDS011;6803;45.264;5.468;2023-04-24T03:16:52;3.70;;;1.73;;
13461;SDS011;6803;45.264;5.468;2023-04-24T03:19:23;5.07;;;2.13;;
13461;SDS011;6803;45.264;5.468;2023-04-24T03:21:54;7.33;;;2.13;;
13461;SDS011;6803;45.264;5.468;2023-04-24T03:24:25;1.43;;;1.33;;
13461;SDS011;6803;45.264;5.468;2023-04-24T03:26:56;3.20;;;1.70;;
13461;SDS011;6803;45.264;5.468;2023-04-24T03:29:28;1.87;;;1.67;;
13461;SDS011;6803;45.264;5.468;2023-04-24T03:31:59;4.10;;;1.60;;
13461;SDS011;6803;45.264;5.468;2023-04-24T03:34:30;2.67;;;1.90;;
13461;SDS011;6803;45.264;5.468;2023-04-24T03:37:01;2.63;;;1.60;;
13461;SDS011;6803;45.264;5.468;2023-04-24T03:39:32;1.67;;;1.57;;
13461;SDS011;6803;45.264;5.468;2023-04-24T03:42:03;3.33;;;1.30;;
13461;SDS011;6803;45.264;5.468;2023-04-24T03:44:34;2.90;;;1.50;;
13461;SDS011;6803;45.264;5.468;2023-04-24T03:47:05;3.10;;;1.90;;
13461;SDS011;6803;45.264;5.468;2023-04-24T03:49:36;8.93;;;2.03;;
13461;SDS011;6803;45.264;5.468;2023-04-24T03:52:08;2.10;;;1.90;;
13461;SDS011;6803;45.264;5.468;2023-04-24T03:54:39;3.47;;;1.93;;
13461;SDS011;6803;45.264;5.468;2023-04-24T03:57:10;2.97;;;1.50;;
13461;SDS011;6803;45.264;5.468;2023-04-24T03:59:41;6.10;;;1.80;;
13461;SDS011;6803;45.264;5.468;2023-04-24T04:02:12;1.90;;;1.70;;
13461;SDS011;6803;45.264;5.468;2023-04-24T04:04:43;2.33;;;1.83;;
13461;SDS011;6803;45.264;5.468;2023-04-24T04:07:14;4.40;;;2.03;;
13461;SDS011;6803;45.264;5.468;2023-04-24T04:09:45;3.30;;;1.90;;
13461;SDS011;6803;45.264;5.468;2023-04-24T04:12:22;3.90;;;1.70;;
13461;SDS011;6803;45.264;5.468;2023-04-24T04:14:53;3.87;;;1.70;;
13461;SDS011;6803;45.264;5.468;2023-04-24T04:17:24;2.30;;;1.80;;
13461;SDS011;6803;45.264;5.468;2023-04-24T04:22:44;3.23;;;2.00;;
13461;SDS011;6803;45.264;5.468;2023-04-24T04:25:15;2.23;;;1.90;;
13461;SDS011;6803;45.264;5.468;2023-04-24T04:27:47;2.07;;;1.70;;
13461;SDS011;6803;45.264;5.468;2023-04-24T04:30:19;2.53;;;1.73;;
13461;SDS011;6803;45.264;5.468;2023-04-24T04:32:51;4.07;;;1.93;;
13461;SDS011;6803;45.264;5.468;2023-04-24T04:35:22;2.77;;;2.07;;
13461;SDS011;6803;45.264;5.468;2023-04-24T04:37:53;2.47;;;1.80;;
13461;SDS011;6803;45.264;5.468;2023-04-24T04:40:26;10.87;;;4.30;;
13461;SDS011;6803;45.264;5.468;2023-04-24T04:42:58;8.33;;;4.50;;
13461;SDS011;6803;45.264;5.468;2023-04-24T04:45:29;4.17;;;3.20;;
13461;SDS011;6803;45.264;5.468;2023-04-24T04:48:00;13.33;;;3.77;;
13461;SDS011;6803;45.264;5.468;2023-04-24T04:50:31;8.40;;;3.60;;
13461;SDS011;6803;45.264;5.468;2023-04-24T04:53:02;4.70;;;3.73;;
13461;SDS011;6803;45.264;5.468;2023-04-24T04:55:34;6.47;;;4.03;;
13461;SDS011;6803;45.264;5.468;2023-04-24T04:58:05;6.70;;;3.33;;
13461;SDS011;6803;45.264;5.468;2023-04-24T05:00:36;7.53;;;3.00;;
13461;SDS011;6803;45.264;5.468;2023-04-24T05:03:08;10.40;;;3.20;;
13461;SDS011;6803;45.264;5.468;2023-04-24T05:05:40;6.17;;;2.67;;
13461;SDS011;6803;45.264;5.468;2023-04-24T05:08:11;5.00;;;2.60;;
13461;SDS011;6803;45.264;5.468;2023-04-24T05:10:43;6.97;;;2.57;;
13461;SDS011;6803;45.264;5.468;2023-04-24T05:13:14;4.40;;;3.47;;
13461;SDS011;6803;45.264;5.468;2023-04-24T05:15:46;8.03;;;3.70;;
13461;SDS011;6803;45.264;5.468;2023-04-24T05:18:17;5.87;;;3.00;;
13461;SDS011;6803;45.264;5.468;2023-04-24T05:20:48;4.07;;;2.30;;
13461;SDS011;6803;45.264;5.468;2023-04-24T05:23:19;3.80;;;2.30;;
13461;SDS011;6803;45.264;5.468;2023-04-24T05:25:50;3.57;;;2.33;;
13461;SDS011;6803;45.264;5.468;2023-04-24T05:28:21;3.97;;;2.40;;
13461;SDS011;6803;45.264;5.468;2023-04-24T05:30:53;4.60;;;2.40;;
13461;SDS011;6803;45.264;5.468;2023-04-24T05:33:27;10.70;;;3.40;;
13461;SDS011;6803;45.264;5.468;2023-04-24T05:35:59;15.30;;;4.73;;
13461;SDS011;6803;45.264;5.468;2023-04-24T05:38:29;5.90;;;3.57;;
13461;SDS011;6803;45.264;5.468;2023-04-24T05:41:00;4.53;;;3.00;;
13461;SDS011;6803;45.264;5.468;2023-04-24T05:43:31;5.60;;;3.87;;
13461;SDS011;6803;45.264;5.468;2023-04-24T05:46:02;6.80;;;3.57;;
13461;SDS011;6803;45.264;5.468;2023-04-24T05:48:33;17.33;;;4.60;;
13461;SDS011;6803;45.264;5.468;2023-04-24T05:51:04;36.10;;;5.37;;
13461;SDS011;6803;45.264;5.468;2023-04-24T05:53:35;9.80;;;8.20;;
13461;SDS011;6803;45.264;5.468;2023-04-24T05:56:06;11.23;;;9.27;;
13461;SDS011;6803;45.264;5.468;2023-04-24T05:58:37;11.47;;;8.87;;
13461;SDS011;6803;45.264;5.468;2023-04-24T06:01:08;9.80;;;8.23;;
13461;SDS011;6803;45.264;5.468;2023-04-24T06:03:39;11.43;;;8.03;;
13461;SDS011;6803;45.264;5.468;2023-04-24T06:06:10;10.53;;;7.63;;
13461;SDS011;6803;45.264;5.468;2023-04-24T06:08:41;8.03;;;6.63;;
13461;SDS011;6803;45.264;5.468;2023-04-24T06:11:13;10.90;;;8.03;;
13461;SDS011;6803;45.264;5.468;2023-04-24T06:13:44;8.17;;;7.20;;
13461;SDS011;6803;45.264;5.468;2023-04-24T06:16:15;7.63;;;6.60;;
13461;SDS011;6803;45.264;5.468;2023-04-24T06:18:46;9.10;;;7.70;;
13461;SDS011;6803;45.264;5.468;2023-04-24T06:21:18;11.70;;;8.20;;
13461;SDS011;6803;45.264;5.468;2023-04-24T06:23:49;9.40;;;8.17;;
13461;SDS011;6803;45.264;5.468;2023-04-24T06:26:20;14.17;;;8.30;;
13461;SDS011;6803;45.264;5.468;2023-04-24T06:28:52;12.93;;;8.27;;
13461;SDS011;6803;45.264;5.468;2023-04-24T06:31:23;11.10;;;8.73;;
13461;SDS011;6803;45.264;5.468;2023-04-24T06:33:54;10.03;;;8.17;;
13461;SDS011;6803;45.264;5.468;2023-04-24T06:36:25;8.97;;;7.73;;
13461;SDS011;6803;45.264;5.468;2023-04-24T06:38:55;9.47;;;7.63;;
13461;SDS011;6803;45.264;5.468;2023-04-24T06:41:26;8.43;;;6.80;;
13461;SDS011;6803;45.264;5.468;2023-04-24T06:43:57;7.43;;;5.43;;
13461;SDS011;6803;45.264;5.468;2023-04-24T06:46:28;7.70;;;6.37;;
13461;SDS011;6803;45.264;5.468;2023-04-24T06:49:00;7.10;;;5.40;;
13461;SDS011;6803;45.264;5.468;2023-04-24T06:51:31;6.60;;;5.97;;
13461;SDS011;6803;45.264;5.468;2023-04-24T06:54:02;8.43;;;5.73;;
13461;SDS011;6803;45.264;5.468;2023-04-24T06:56:33;4.83;;;4.33;;
13461;SDS011;6803;45.264;5.468;2023-04-24T06:59:04;5.50;;;4.93;;
13461;SDS011;6803;45.264;5.468;2023-04-24T07:01:35;5.77;;;5.00;;
13461;SDS011;6803;45.264;5.468;2023-04-24T07:04:06;6.07;;;4.90;;
13461;SDS011;6803;45.264;5.468;2023-04-24T07:06:37;4.80;;;4.30;;
13461;SDS011;6803;45.264;5.468;2023-04-24T07:09:07;5.90;;;4.50;;
13461;SDS011;6803;45.264;5.468;2023-04-24T07:11:39;5.90;;;4.90;;
13461;SDS011;6803;45.264;5.468;2023-04-24T07:14:10;6.13;;;4.87;;
13461;SDS011;6803;45.264;5.468;2023-04-24T07:16:40;5.93;;;5.27;;
13461;SDS011;6803;45.264;5.468;2023-04-24T07:19:13;5.67;;;5.07;;
13461;SDS011;6803;45.264;5.468;2023-04-24T07:21:44;7.40;;;4.93;;
13461;SDS011;6803;45.264;5.468;2023-04-24T07:24:15;6.30;;;5.10;;
13461;SDS011;6803;45.264;5.468;2023-04-24T07:26:47;8.03;;;4.50;;
13461;SDS011;6803;45.264;5.468;2023-04-24T07:29:19;5.70;;;4.90;;
13461;SDS011;6803;45.264;5.468;2023-04-24T07:31:50;5.87;;;4.70;;
13461;SDS011;6803;45.264;5.468;2023-04-24T07:34:22;5.73;;;4.30;;
13461;SDS011;6803;45.264;5.468;2023-04-24T07:36:53;5.40;;;4.80;;
13461;SDS011;6803;45.264;5.468;2023-04-24T07:39:24;6.30;;;4.63;;
13461;SDS011;6803;45.264;5.468;2023-04-24T07:41:57;5.23;;;4.53;;
13461;SDS011;6803;45.264;5.468;2023-04-24T07:44:29;5.43;;;4.10;;
13461;SDS011;6803;45.264;5.468;2023-04-24T07:47:00;5.90;;;4.30;;
13461;SDS011;6803;45.264;5.468;2023-04-24T07:49:31;4.93;;;3.90;;
13461;SDS011;6803;45.264;5.468;2023-04-24T07:52:02;4.07;;;3.40;;
13461;SDS011;6803;45.264;5.468;2023-04-24T07:54:33;4.57;;;4.00;;
13461;SDS011;6803;45.264;5.468;2023-04-24T07:57:05;3.70;;;3.40;;
13461;SDS011;6803;45.264;5.468;2023-04-24T07:59:36;4.63;;;3.53;;
13461;SDS011;6803;45.264;5.468;2023-04-24T08:02:07;4.00;;;3.53;;
13461;SDS011;6803;45.264;5.468;2023-04-24T08:04:38;3.57;;;3.10;;
13461;SDS011;6803;45.264;5.468;2023-04-24T08:07:09;3.50;;;3.20;;
13461;SDS011;6803;45.264;5.468;2023-04-24T08:09:40;6.23;;;3.03;;
13461;SDS011;6803;45.264;5.468;2023-04-24T08:12:12;3.63;;;2.70;;
13461;SDS011;6803;45.264;5.468;2023-04-24T08:14:42;2.27;;;1.90;;
13461;SDS011;6803;45.264;5.468;2023-04-24T08:17:13;6.23;;;1.70;;
13461;SDS011;6803;45.264;5.468;2023-04-24T08:19:45;5.23;;;1.40;;
13461;SDS011;6803;45.264;5.468;2023-04-24T08:22:16;2.90;;;1.20;;
13461;SDS011;6803;45.264;5.468;2023-04-24T08:24:47;1.33;;;1.10;;
13461;SDS011;6803;45.264;5.468;2023-04-24T08:27:18;2.30;;;1.00;;
13461;SDS011;6803;45.264;5.468;2023-04-24T08:29:49;4.53;;;1.10;;
13461;SDS011;6803;45.264;5.468;2023-04-24T08:32:22;1.53;;;1.10;;
13461;SDS011;6803;45.264;5.468;2023-04-24T08:34:53;4.00;;;1.17;;
13461;SDS011;6803;45.264;5.468;2023-04-24T08:37:25;5.13;;;1.47;;
13461;SDS011;6803;45.264;5.468;2023-04-24T08:39:56;5.23;;;1.70;;
13461;SDS011;6803;45.264;5.468;2023-04-24T08:42:27;1.30;;;1.20;;
13461;SDS011;6803;45.264;5.468;2023-04-24T08:45:01;4.60;;;1.40;;
13461;SDS011;6803;45.264;5.468;2023-04-24T08:47:33;2.23;;;1.23;;
13461;SDS011;6803;45.264;5.468;2023-04-24T08:50:07;2.83;;;1.20;;
13461;SDS011;6803;45.264;5.468;2023-04-24T08:52:40;2.03;;;1.30;;
13461;SDS011;6803;45.264;5.468;2023-04-24T08:55:12;3.77;;;1.40;;
13461;SDS011;6803;45.264;5.468;2023-04-24T08:57:44;1.73;;;1.17;;
13461;SDS011;6803;45.264;5.468;2023-04-24T09:00:18;1.40;;;1.10;;
13461;SDS011;6803;45.264;5.468;2023-04-24T09:02:50;3.27;;;1.27;;
13461;SDS011;6803;45.264;5.468;2023-04-24T09:05:22;2.13;;;1.60;;
13461;SDS011;6803;45.264;5.468;2023-04-24T09:07:55;3.40;;;1.23;;
13461;SDS011;6803;45.264;5.468;2023-04-24T09:10:27;1.67;;;1.00;;
13461;SDS011;6803;45.264;5.468;2023-04-24T09:12:58;1.43;;;1.07;;
13461;SDS011;6803;45.264;5.468;2023-04-24T09:15:31;2.53;;;1.40;;
13461;SDS011;6803;45.264;5.468;2023-04-24T09:18:03;5.43;;;1.10;;
13461;SDS011;6803;45.264;5.468;2023-04-24T09:20:34;4.33;;;1.20;;
13461;SDS011;6803;45.264;5.468;2023-04-24T09:25:48;2.27;;;1.37;;
13461;SDS011;6803;45.264;5.468;2023-04-24T09:28:25;2.13;;;1.20;;
13461;SDS011;6803;45.264;5.468;2023-04-24T09:31:05;4.63;;;1.33;;
13461;SDS011;6803;45.264;5.468;2023-04-24T09:33:37;1.63;;;1.20;;
13461;SDS011;6803;45.264;5.468;2023-04-24T09:36:08;2.80;;;1.50;;
13461;SDS011;6803;45.264;5.468;2023-04-24T09:38:39;2.87;;;1.40;;
13461;SDS011;6803;45.264;5.468;2023-04-24T09:41:12;2.63;;;1.37;;
13461;SDS011;6803;45.264;5.468;2023-04-24T09:43:43;2.90;;;1.53;;
13461;SDS011;6803;45.264;5.468;2023-04-24T09:46:13;6.23;;;1.43;;
13461;SDS011;6803;45.264;5.468;2023-04-24T09:48:46;2.03;;;1.43;;
13461;SDS011;6803;45.264;5.468;2023-04-24T09:51:17;5.50;;;1.33;;
13461;SDS011;6803;45.264;5.468;2023-04-24T09:53:57;1.90;;;1.50;;
13461;SDS011;6803;45.264;5.468;2023-04-24T09:56:28;5.40;;;1.63;;
13461;SDS011;6803;45.264;5.468;2023-04-24T09:59:07;2.97;;;1.40;;
13461;SDS011;6803;45.264;5.468;2023-04-24T10:01:38;4.70;;;1.60;;
13461;SDS011;6803;45.264;5.468;2023-04-24T10:04:16;3.27;;;1.30;;
13461;SDS011;6803;45.264;5.468;2023-04-24T10:06:49;1.63;;;1.20;;
13461;SDS011;6803;45.264;5.468;2023-04-24T10:09:22;2.20;;;1.27;;
13461;SDS011;6803;45.264;5.468;2023-04-24T10:11:54;3.20;;;1.40;;
13461;SDS011;6803;45.264;5.468;2023-04-24T10:14:25;1.83;;;1.33;;
13461;SDS011;6803;45.264;5.468;2023-04-24T10:16:56;1.77;;;1.00;;
13461;SDS011;6803;45.264;5.468;2023-04-24T10:19:27;1.27;;;1.13;;
13461;SDS011;6803;45.264;5.468;2023-04-24T10:22:00;2.40;;;1.37;;
13461;SDS011;6803;45.264;5.468;2023-04-24T10:24:33;2.50;;;1.50;;
13461;SDS011;6803;45.264;5.468;2023-04-24T10:27:06;2.23;;;1.30;;
13461;SDS011;6803;45.264;5.468;2023-04-24T10:29:38;4.43;;;1.27;;
13461;SDS011;6803;45.264;5.468;2023-04-24T10:32:12;1.37;;;1.17;;
13461;SDS011;6803;45.264;5.468;2023-04-24T10:34:43;4.87;;;1.20;;
13461;SDS011;6803;45.264;5.468;2023-04-24T10:37:14;3.77;;;1.10;;
13461;SDS011;6803;45.264;5.468;2023-04-24T10:39:47;1.87;;;1.10;;
13461;SDS011;6803;45.264;5.468;2023-04-24T10:42:22;3.57;;;1.37;;
13461;SDS011;6803;45.264;5.468;2023-04-24T10:44:53;1.97;;;1.20;;
13461;SDS011;6803;45.264;5.468;2023-04-24T10:47:26;2.50;;;1.10;;
13461;SDS011;6803;45.264;5.468;2023-04-24T10:49:59;1.77;;;1.03;;
13461;SDS011;6803;45.264;5.468;2023-04-24T10:52:44;1.85;;;1.10;;
13461;SDS011;6803;45.264;5.468;2023-04-24T10:55:16;2.20;;;1.57;;
13461;SDS011;6803;45.264;5.468;2023-04-24T10:58:01;2.70;;;1.30;;
13461;SDS011;6803;45.264;5.468;2023-04-24T11:00:33;3.40;;;1.53;;
13461;SDS011;6803;45.264;5.468;2023-04-24T11:03:07;2.50;;;1.20;;
13461;SDS011;6803;45.264;5.468;2023-04-24T11:05:51;3.70;;;1.27;;
13461;SDS011;6803;45.264;5.468;2023-04-24T11:08:32;1.67;;;0.93;;
13461;SDS011;6803;45.264;5.468;2023-04-24T11:11:10;2.17;;;1.10;;
13461;SDS011;6803;45.264;5.468;2023-04-24T11:16:44;3.13;;;1.00;;
13461;SDS011;6803;45.264;5.468;2023-04-24T11:19:21;3.40;;;1.20;;
13461;SDS011;6803;45.264;5.468;2023-04-24T11:21:58;1.67;;;0.97;;
13461;SDS011;6803;45.264;5.468;2023-04-24T11:24:31;1.00;;;1.00;;
13461;SDS011;6803;45.264;5.468;2023-04-24T11:27:06;1.33;;;1.10;;
13461;SDS011;6803;45.264;5.468;2023-04-24T11:29:40;1.50;;;1.10;;
13461;SDS011;6803;45.264;5.468;2023-04-24T11:32:17;1.97;;;1.13;;
13461;SDS011;6803;45.264;5.468;2023-04-24T11:34:51;1.10;;;0.97;;
13461;SDS011;6803;45.264;5.468;2023-04-24T11:37:26;2.80;;;1.20;;
13461;SDS011;6803;45.264;5.468;2023-04-24T11:39:58;3.87;;;1.43;;
13461;SDS011;6803;45.264;5.468;2023-04-24T11:42:33;4.23;;;1.00;;
13461;SDS011;6803;45.264;5.468;2023-04-24T11:45:08;1.63;;;1.00;;
13461;SDS011;6803;45.264;5.468;2023-04-24T11:47:43;1.50;;;0.83;;
13461;SDS011;6803;45.264;5.468;2023-04-24T11:50:14;0.83;;;0.80;;
13461;SDS011;6803;45.264;5.468;2023-04-24T11:52:47;2.83;;;1.00;;
13461;SDS011;6803;45.264;5.468;2023-04-24T11:55:26;1.63;;;0.87;;
13461;SDS011;6803;45.264;5.468;2023-04-24T11:57:58;2.40;;;0.80;;
13461;SDS011;6803;45.264;5.468;2023-04-24T12:00:30;2.50;;;0.80;;
13461;SDS011;6803;45.264;5.468;2023-04-24T12:03:05;4.20;;;0.90;;
13461;SDS011;6803;45.264;5.468;2023-04-24T12:05:38;2.40;;;0.80;;
13461;SDS011;6803;45.264;5.468;2023-04-24T12:08:10;3.83;;;1.13;;
13461;SDS011;6803;45.264;5.468;2023-04-24T12:10:40;1.20;;;0.80;;
13461;SDS011;6803;45.264;5.468;2023-04-24T12:13:11;3.30;;;0.97;;
13461;SDS011;6803;45.264;5.468;2023-04-24T12:15:43;1.83;;;1.00;;
13461;SDS011;6803;45.264;5.468;2023-04-24T12:18:14;3.43;;;1.00;;
13461;SDS011;6803;45.264;5.468;2023-04-24T12:20:45;2.73;;;0.80;;
13461;SDS011;6803;45.264;5.468;2023-04-24T12:23:16;3.35;;;1.40;;
13461;SDS011;6803;45.264;5.468;2023-04-24T12:25:48;2.87;;;1.10;;
13461;SDS011;6803;45.264;5.468;2023-04-24T12:28:34;2.40;;;1.33;;
13461;SDS011;6803;45.264;5.468;2023-04-24T12:31:06;1.43;;;1.00;;
13461;SDS011;6803;45.264;5.468;2023-04-24T12:33:37;1.53;;;0.90;;
13461;SDS011;6803;45.264;5.468;2023-04-24T12:36:10;2.03;;;1.10;;
13461;SDS011;6803;45.264;5.468;2023-04-24T12:38:43;1.10;;;1.00;;
13461;SDS011;6803;45.264;5.468;2023-04-24T12:41:14;1.43;;;0.90;;
13461;SDS011;6803;45.264;5.468;2023-04-24T12:43:53;2.30;;;1.23;;
13461;SDS011;6803;45.264;5.468;2023-04-24T12:46:24;1.97;;;0.80;;
13461;SDS011;6803;45.264;5.468;2023-04-24T12:48:55;0.87;;;0.60;;
13461;SDS011;6803;45.264;5.468;2023-04-24T12:51:26;2.30;;;0.70;;
13461;SDS011;6803;45.264;5.468;2023-04-24T12:53:57;0.83;;;0.70;;
13461;SDS011;6803;45.264;5.468;2023-04-24T12:56:28;1.60;;;1.00;;
13461;SDS011;6803;45.264;5.468;2023-04-24T12:58:59;2.67;;;1.00;;
13461;SDS011;6803;45.264;5.468;2023-04-24T13:01:38;2.40;;;0.90;;
13461;SDS011;6803;45.264;5.468;2023-04-24T13:04:09;1.47;;;1.00;;
13461;SDS011;6803;45.264;5.468;2023-04-24T13:06:40;1.10;;;0.83;;
13461;SDS011;6803;45.264;5.468;2023-04-24T13:09:11;1.83;;;1.10;;
13461;SDS011;6803;45.264;5.468;2023-04-24T13:11:42;2.40;;;1.10;;
13461;SDS011;6803;45.264;5.468;2023-04-24T13:14:13;3.93;;;1.23;;
13461;SDS011;6803;45.264;5.468;2023-04-24T13:16:43;1.17;;;0.97;;
13461;SDS011;6803;45.264;5.468;2023-04-24T13:19:14;4.30;;;0.80;;
13461;SDS011;6803;45.264;5.468;2023-04-24T13:21:46;1.67;;;0.90;;
13461;SDS011;6803;45.264;5.468;2023-04-24T13:24:17;1.73;;;0.90;;
13461;SDS011;6803;45.264;5.468;2023-04-24T13:26:48;2.63;;;1.00;;
13461;SDS011;6803;45.264;5.468;2023-04-24T13:29:19;1.93;;;1.07;;
13461;SDS011;6803;45.264;5.468;2023-04-24T13:31:50;2.23;;;1.00;;
13461;SDS011;6803;45.264;5.468;2023-04-24T13:34:22;0.97;;;0.80;;
13461;SDS011;6803;45.264;5.468;2023-04-24T13:36:54;1.40;;;0.80;;
13461;SDS011;6803;45.264;5.468;2023-04-24T13:39:26;1.50;;;0.80;;
13461;SDS011;6803;45.264;5.468;2023-04-24T13:41:57;3.53;;;0.80;;
13461;SDS011;6803;45.264;5.468;2023-04-24T13:44:30;1.00;;;0.90;;
13461;SDS011;6803;45.264;5.468;2023-04-24T13:47:01;4.43;;;1.03;;
13461;SDS011;6803;45.264;5.468;2023-04-24T13:49:31;2.80;;;0.73;;
13461;SDS011;6803;45.264;5.468;2023-04-24T13:52:02;1.63;;;1.20;;
13461;SDS011;6803;45.264;5.468;2023-04-24T13:54:33;2.03;;;0.80;;
13461;SDS011;6803;45.264;5.468;2023-04-24T13:57:04;3.60;;;1.17;;
13461;SDS011;6803;45.264;5.468;2023-04-24T13:59:35;4.47;;;1.27;;
13461;SDS011;6803;45.264;5.468;2023-04-24T14:02:07;2.83;;;1.10;;
13461;SDS011;6803;45.264;5.468;2023-04-24T14:04:38;1.20;;;0.80;;
13461;SDS011;6803;45.264;5.468;2023-04-24T14:07:09;5.97;;;1.07;;
13461;SDS011;6803;45.264;5.468;2023-04-24T14:09:40;2.20;;;1.03;;
13461;SDS011;6803;45.264;5.468;2023-04-24T14:12:11;1.57;;;0.80;;
13461;SDS011;6803;45.264;5.468;2023-04-24T14:14:44;1.20;;;0.80;;
13461;SDS011;6803;45.264;5.468;2023-04-24T14:17:15;2.50;;;0.83;;
13461;SDS011;6803;45.264;5.468;2023-04-24T14:19:46;1.53;;;0.83;;
13461;SDS011;6803;45.264;5.468;2023-04-24T14:22:18;2.20;;;1.00;;
13461;SDS011;6803;45.264;5.468;2023-04-24T14:24:48;1.30;;;0.63;;
13461;SDS011;6803;45.264;5.468;2023-04-24T14:27:19;2.57;;;0.70;;
13461;SDS011;6803;45.264;5.468;2023-04-24T14:29:50;2.73;;;1.00;;
13461;SDS011;6803;45.264;5.468;2023-04-24T14:32:22;1.33;;;0.90;;
13461;SDS011;6803;45.264;5.468;2023-04-24T14:34:53;1.37;;;0.63;;
13461;SDS011;6803;45.264;5.468;2023-04-24T14:37:23;1.07;;;1.03;;
13461;SDS011;6803;45.264;5.468;2023-04-24T14:39:54;2.17;;;1.37;;
13461;SDS011;6803;45.264;5.468;2023-04-24T14:42:27;1.30;;;0.63;;
13461;SDS011;6803;45.264;5.468;2023-04-24T14:44:58;0.63;;;0.50;;
13461;SDS011;6803;45.264;5.468;2023-04-24T14:47:29;1.97;;;1.03;;
13461;SDS011;6803;45.264;5.468;2023-04-24T14:50:00;4.40;;;0.87;;
13461;SDS011;6803;45.264;5.468;2023-04-24T14:52:31;1.00;;;0.77;;
13461;SDS011;6803;45.264;5.468;2023-04-24T14:55:03;2.00;;;1.10;;
13461;SDS011;6803;45.264;5.468;2023-04-24T14:57:35;1.13;;;0.97;;
13461;SDS011;6803;45.264;5.468;2023-04-24T15:00:07;2.53;;;1.10;;
13461;SDS011;6803;45.264;5.468;2023-04-24T15:02:39;2.63;;;1.10;;
13461;SDS011;6803;45.264;5.468;2023-04-24T15:05:12;1.20;;;1.00;;
13461;SDS011;6803;45.264;5.468;2023-04-24T15:07:43;2.80;;;1.27;;
13461;SDS011;6803;45.264;5.468;2023-04-24T15:10:14;1.03;;;0.83;;
13461;SDS011;6803;45.264;5.468;2023-04-24T15:12:45;1.37;;;1.00;;
13461;SDS011;6803;45.264;5.468;2023-04-24T15:15:16;1.37;;;0.90;;
13461;SDS011;6803;45.264;5.468;2023-04-24T15:17:47;1.70;;;0.80;;
13461;SDS011;6803;45.264;5.468;2023-04-24T15:20:18;1.20;;;0.80;;
13461;SDS011;6803;45.264;5.468;2023-04-24T15:22:49;3.07;;;0.83;;
13461;SDS011;6803;45.264;5.468;2023-04-24T15:25:20;2.73;;;1.00;;
13461;SDS011;6803;45.264;5.468;2023-04-24T15:27:50;2.20;;;1.03;;
13461;SDS011;6803;45.264;5.468;2023-04-24T15:30:22;3.20;;;1.30;;
13461;SDS011;6803;45.264;5.468;2023-04-24T15:32:53;2.53;;;0.90;;
13461;SDS011;6803;45.264;5.468;2023-04-24T15:35:25;1.97;;;0.90;;
13461;SDS011;6803;45.264;5.468;2023-04-24T15:37:56;2.10;;;1.00;;